createdAt,value
2023-01-17T00:01:57.570Z,100.00
2023-01-17T00:07:17.396Z,100.00
2023-01-17T00:12:20.698Z,100.00
2023-01-17T00:17:26.693Z,100.00
2023-01-17T00:22:48.419Z,100.00
2023-01-17T00:27:49.788Z,100.00
2023-01-17T00:32:51.317Z,100.00
2023-01-17T00:38:13.237Z,100.00
2023-01-17T00:43:35.867Z,100.00
2023-01-17T00:48:57.055Z,100.00
2023-01-17T00:54:18.991Z,100.00
2023-01-17T00:59:39.353Z,100.00
2023-01-17T01:04:59.337Z,100.00
2023-01-17T01:10:19.475Z,100.00
2023-01-17T01:15:39.649Z,100.00
2023-01-17T01:20:59.650Z,100.00
2023-01-17T01:26:21.690Z,100.00
2023-01-17T01:31:41.592Z,100.00
2023-01-17T01:36:43.111Z,100.00
2023-01-17T01:41:44.595Z,100.00
2023-01-17T01:46:46.286Z,100.00
2023-01-17T01:51:54.277Z,100.00
2023-01-17T01:56:58.807Z,100.00
2023-01-17T02:02:00.798Z,100.00
2023-01-17T02:07:10.906Z,100.00
2023-01-17T02:12:13.379Z,100.00
2023-01-17T02:17:17.531Z,100.00
2023-01-17T02:22:24.765Z,100.00
2023-01-17T02:27:40.041Z,100.00
2023-01-17T02:32:52.936Z,100.00
2023-01-17T02:38:15.957Z,100.00
2023-01-17T02:43:20.401Z,100.00
2023-01-17T02:48:25.815Z,100.00
2023-01-17T02:53:27.190Z,100.00
2023-01-17T02:59:05.726Z,100.00
2023-01-17T03:04:15.248Z,100.00
2023-01-17T03:09:18.804Z,100.00
2023-01-17T03:14:20.370Z,100.00
2023-01-17T03:19:21.800Z,100.00
2023-01-17T03:24:23.485Z,100.00
2023-01-17T03:29:24.911Z,100.00
2023-01-17T03:34:26.354Z,100.00
2023-01-17T03:39:27.825Z,100.00
2023-01-17T03:44:29.316Z,100.00
2023-01-17T03:49:31.287Z,100.00
2023-01-17T03:54:33.174Z,100.00
2023-01-17T03:59:34.674Z,100.00
2023-01-17T04:04:36.172Z,100.00
2023-01-17T04:09:37.656Z,100.00
2023-01-17T04:14:39.714Z,100.00
2023-01-17T04:19:41.345Z,100.00
2023-01-17T04:24:42.748Z,100.00
2023-01-17T04:29:46.589Z,100.00
2023-01-17T04:34:48.222Z,100.00
2023-01-17T04:39:49.807Z,100.00
2023-01-17T04:44:51.319Z,100.00
2023-01-17T04:49:53.547Z,100.00
2023-01-17T04:54:54.998Z,100.00
2023-01-17T04:59:56.402Z,100.00
2023-01-17T05:04:57.973Z,100.00
2023-01-17T05:10:02.076Z,100.00
2023-01-17T05:15:03.899Z,100.00
2023-01-17T05:20:05.914Z,100.00
2023-01-17T05:25:07.710Z,100.00
2023-01-17T05:30:09.947Z,100.00
2023-01-17T05:35:11.368Z,100.00
2023-01-17T05:40:13.129Z,100.00
2023-01-17T05:45:16.890Z,100.00
2023-01-17T05:50:23.842Z,100.00
2023-01-17T05:55:27.037Z,100.00
2023-01-17T06:00:29.534Z,100.00
2023-01-17T06:05:31.427Z,100.00
2023-01-17T06:10:33.193Z,100.00
2023-01-17T06:15:36.501Z,100.00
2023-01-17T06:20:38.259Z,100.00
2023-01-17T06:25:44.807Z,100.00
2023-01-17T06:30:46.730Z,100.00
2023-01-17T06:35:49.832Z,100.00
2023-01-17T06:40:51.395Z,100.00
2023-01-17T06:45:54.699Z,100.00
2023-01-17T06:50:57.502Z,100.00
2023-01-17T06:55:59.077Z,100.00
2023-01-17T07:01:11.348Z,100.00
2023-01-17T07:06:12.927Z,100.00
2023-01-17T07:11:14.380Z,100.00
2023-01-17T07:16:15.892Z,100.00
2023-01-17T07:21:17.404Z,100.00
2023-01-17T07:26:19.152Z,100.00
2023-01-17T07:31:20.609Z,99.57
2023-01-17T07:36:22.028Z,100.00
2023-01-17T07:41:23.505Z,100.00
2023-01-17T07:46:24.945Z,100.00
2023-01-17T07:51:26.383Z,100.00
2023-01-17T07:56:27.986Z,100.00
2023-01-17T08:01:30.068Z,100.00
2023-01-17T08:06:31.640Z,99.85
2023-01-17T08:11:33.123Z,100.00
2023-01-17T08:16:34.643Z,100.00
2023-01-17T08:21:36.094Z,100.00
2023-01-17T08:26:37.531Z,100.00
2023-01-17T08:31:39.075Z,100.00
2023-01-17T08:36:42.783Z,99.75
2023-01-17T08:41:44.247Z,100.00
2023-01-17T08:46:45.668Z,100.00
2023-01-17T08:51:47.083Z,99.89
2023-01-17T08:56:49.535Z,99.57
2023-01-17T09:01:52.376Z,99.21
2023-01-17T09:06:54.028Z,97.52
2023-01-17T09:11:55.437Z,97.61
2023-01-17T09:16:56.864Z,97.86
2023-01-17T09:21:58.599Z,97.95
2023-01-17T09:27:00.395Z,96.22
2023-01-17T09:32:02.046Z,96.28
2023-01-17T09:37:03.484Z,95.84
2023-01-17T09:42:25.492Z,96.10
2023-01-17T09:47:35.970Z,95.55
2023-01-17T09:52:37.428Z,95.54
2023-01-17T09:58:01.502Z,92.75
2023-01-17T10:03:13.317Z,91.56
2023-01-17T10:08:20.227Z,91.87
2023-01-17T10:13:53.493Z,92.47
2023-01-17T10:19:03.794Z,91.72
2023-01-17T10:24:21.699Z,90.97
2023-01-17T10:29:27.999Z,89.84
2023-01-17T10:34:41.933Z,90.30
2023-01-17T10:39:46.297Z,91.07
2023-01-17T10:44:59.119Z,90.69
2023-01-17T10:50:04.985Z,89.45
2023-01-17T10:55:30.880Z,88.64
2023-01-17T11:00:59.840Z,88.80
2023-01-17T11:06:18.433Z,87.31
2023-01-17T11:11:23.284Z,86.81
2023-01-17T11:16:28.596Z,89.24
2023-01-17T11:21:30.649Z,87.41
2023-01-17T11:26:34.676Z,86.88
2023-01-17T11:31:36.157Z,84.71
2023-01-17T11:36:37.659Z,81.61
2023-01-17T11:41:41.423Z,80.30
2023-01-17T11:46:42.828Z,81.81
2023-01-17T11:51:44.312Z,77.68
2023-01-17T11:56:46.331Z,78.39
2023-01-17T12:02:15.545Z,80.71
2023-01-17T12:07:27.308Z,80.10
2023-01-17T12:12:53.317Z,74.59
2023-01-17T12:18:13.492Z,76.95
2023-01-17T12:23:25.532Z,74.00
2023-01-17T12:28:46.062Z,75.69
2023-01-17T12:34:01.990Z,75.78
2023-01-17T12:39:09.267Z,72.42
2023-01-17T12:44:15.465Z,70.16
2023-01-17T12:49:35.251Z,71.58
2023-01-17T12:54:44.261Z,72.58
2023-01-17T12:59:55.686Z,70.73
2023-01-17T13:05:05.156Z,71.03
2023-01-17T13:10:32.269Z,69.72
2023-01-17T13:15:39.636Z,70.33
2023-01-17T13:21:06.045Z,71.26
2023-01-17T13:26:32.788Z,70.07
2023-01-17T13:31:49.404Z,67.40
2023-01-17T13:37:09.482Z,66.25
2023-01-17T13:42:48.427Z,68.88
2023-01-17T13:47:49.944Z,69.38
2023-01-17T13:52:51.370Z,69.33
2023-01-17T13:57:52.782Z,69.60
2023-01-17T14:02:55.626Z,66.48
2023-01-17T14:08:03.758Z,66.26
2023-01-17T14:13:24.873Z,64.40
2023-01-17T14:18:46.639Z,68.13
2023-01-17T14:23:53.364Z,65.63
2023-01-17T14:28:57.836Z,67.18
2023-01-17T14:34:11.957Z,67.93
2023-01-17T14:39:22.838Z,68.05
2023-01-17T14:44:24.412Z,67.84
2023-01-17T14:49:26.900Z,66.75
2023-01-17T14:54:29.044Z,65.09
2023-01-17T14:59:30.502Z,64.35
2023-01-17T15:04:35.439Z,67.05
2023-01-17T15:09:37.739Z,66.57
2023-01-17T15:14:43.291Z,67.39
2023-01-17T15:19:47.723Z,68.68
2023-01-17T15:24:49.577Z,67.15
2023-01-17T15:29:51.804Z,70.28
2023-01-17T15:34:53.894Z,67.02
2023-01-17T15:40:05.763Z,67.04
2023-01-17T15:45:15.516Z,68.69
2023-01-17T15:50:20.279Z,71.45
2023-01-17T15:55:24.616Z,72.93
2023-01-17T16:00:38.984Z,74.25
2023-01-17T16:05:43.432Z,74.78
2023-01-17T16:10:44.952Z,80.67
2023-01-17T16:15:46.601Z,75.26
2023-01-17T16:20:55.277Z,77.18
2023-01-17T16:25:56.805Z,77.75
2023-01-17T16:30:58.475Z,76.86
2023-01-17T16:35:59.957Z,76.44
2023-01-17T16:41:04.245Z,79.04
2023-01-17T16:46:06.222Z,79.83
2023-01-17T16:51:08.321Z,80.58
2023-01-17T16:56:13.485Z,79.53
2023-01-17T17:01:17.219Z,80.16
2023-01-17T17:06:18.794Z,82.09
2023-01-17T17:11:22.984Z,84.23
2023-01-17T17:16:29.896Z,84.06
2023-01-17T17:21:32.998Z,84.64
2023-01-17T17:26:36.572Z,84.69
2023-01-17T17:31:39.857Z,85.51
2023-01-17T17:36:42.015Z,86.11
2023-01-17T17:41:45.653Z,85.50
2023-01-17T17:46:49.236Z,86.74
2023-01-17T17:51:50.728Z,87.80
2023-01-17T17:56:52.144Z,87.78
2023-01-17T18:01:53.800Z,87.85
2023-01-17T18:06:57.307Z,89.00
2023-01-17T18:11:58.781Z,89.62
2023-01-17T18:17:00.305Z,89.90
2023-01-17T18:22:03.330Z,90.10
2023-01-17T18:27:04.805Z,88.89
2023-01-17T18:32:06.304Z,90.22
2023-01-17T18:37:07.762Z,90.74
2023-01-17T18:42:11.530Z,90.92
2023-01-17T18:47:13.055Z,89.47
2023-01-17T18:52:14.933Z,88.91
2023-01-17T18:57:16.368Z,90.58
2023-01-17T19:02:19.432Z,91.24
2023-01-17T19:07:21.593Z,91.22
2023-01-17T19:12:23.014Z,90.28
2023-01-17T19:17:24.451Z,90.77
2023-01-17T19:22:25.863Z,91.09
2023-01-17T19:27:27.369Z,90.66
2023-01-17T19:32:28.881Z,91.61
2023-01-17T19:37:30.290Z,91.85
2023-01-17T19:42:31.716Z,91.85
2023-01-17T19:47:33.786Z,90.92
2023-01-17T19:52:35.929Z,91.61
2023-01-17T19:57:37.557Z,91.61
2023-01-17T20:02:39.367Z,91.16
2023-01-17T20:07:40.877Z,92.23
2023-01-17T20:12:42.392Z,92.54
2023-01-17T20:17:43.918Z,92.54
2023-01-17T20:27:46.797Z,92.54
2023-01-17T20:32:48.209Z,92.54
2023-01-17T20:37:52.587Z,92.54
2023-01-17T20:42:54.050Z,93.52
2023-01-17T20:47:55.843Z,94.34
2023-01-17T20:52:57.482Z,94.34
2023-01-17T20:57:59.680Z,94.34
2023-01-17T21:03:01.570Z,94.81
2023-01-17T21:08:03.839Z,94.81
2023-01-17T21:13:05.259Z,94.81
2023-01-17T21:18:06.710Z,94.55
2023-01-17T21:23:10.063Z,94.55
2023-01-17T21:28:11.564Z,94.55
2023-01-17T21:33:13.158Z,94.55
2023-01-17T21:38:15.211Z,93.38
2023-01-17T21:43:16.670Z,100.00
2023-01-17T21:48:18.147Z,93.38
2023-01-17T21:53:19.666Z,93.38
2023-01-17T21:58:39.973Z,93.38
2023-01-17T22:03:42.101Z,69.65
2023-01-17T22:13:46.092Z,100.00
2023-01-17T22:18:47.836Z,0.00
2023-01-17T22:23:54.578Z,93.38
2023-01-17T22:28:59.109Z,100.00
2023-01-17T22:39:04.512Z,100.00
2023-01-17T22:44:07.447Z,100.00
2023-01-17T22:49:13.163Z,100.00
2023-01-17T22:54:14.818Z,100.00
2023-01-17T22:59:16.332Z,100.00
2023-01-17T23:04:17.766Z,100.00
2023-01-17T23:09:19.203Z,100.00
2023-01-17T23:14:52.371Z,100.00
2023-01-17T23:19:56.775Z,100.00
2023-01-17T23:25:06.963Z,93.38
2023-01-17T23:30:12.554Z,93.38
2023-01-17T23:35:14.970Z,93.38
2023-01-17T23:45:19.079Z,100.00
2023-01-17T23:50:20.712Z,93.38
